createdAt,value
2022-09-22T00:02:07.170Z,5.59
2022-09-22T00:05:08.993Z,5.45
2022-09-22T00:08:10.609Z,5.44
2022-09-22T00:11:14.875Z,5.44
2022-09-22T00:14:18.937Z,5.45
2022-09-22T00:17:20.620Z,5.19
2022-09-22T00:20:22.416Z,5.38
2022-09-22T00:23:24.834Z,5.53
2022-09-22T00:26:27.976Z,5.58
2022-09-22T00:29:30.254Z,5.49
2022-09-22T00:32:31.970Z,5.34
2022-09-22T00:35:33.633Z,5.52
2022-09-22T00:38:35.281Z,5.56
2022-09-22T00:41:40.065Z,5.05
2022-09-22T00:44:42.220Z,4.68
2022-09-22T00:47:45.244Z,4.80
2022-09-22T00:50:47.439Z,5.01
2022-09-22T00:53:49.683Z,5.20
2022-09-22T00:56:54.125Z,5.19
2022-09-22T00:59:55.805Z,5.19
2022-09-22T01:02:59.178Z,4.45
2022-09-22T01:06:03.049Z,4.49
2022-09-22T01:09:05.408Z,4.77
2022-09-22T01:12:08.669Z,4.99
2022-09-22T01:15:23.692Z,5.12
2022-09-22T01:18:29.741Z,5.25
2022-09-22T01:21:36.202Z,5.26
2022-09-22T01:24:54.078Z,5.34
2022-09-22T01:28:15.234Z,5.29
2022-09-22T01:31:21.491Z,5.27
2022-09-22T01:34:27.735Z,5.21
2022-09-22T01:37:35.765Z,5.17
2022-09-22T01:40:41.873Z,5.19
2022-09-22T01:43:47.852Z,5.23
2022-09-22T01:46:53.026Z,5.18
2022-09-22T01:49:58.560Z,5.20
2022-09-22T01:53:03.467Z,5.26
2022-09-22T01:56:08.581Z,5.17
2022-09-22T01:59:11.526Z,5.19
2022-09-22T02:02:17.825Z,5.28
2022-09-22T02:05:22.746Z,5.24
2022-09-22T02:08:26.996Z,5.28
2022-09-22T02:11:28.654Z,5.17
2022-09-22T02:14:30.298Z,5.19
2022-09-22T02:17:35.458Z,5.20
2022-09-22T02:20:37.671Z,5.03
2022-09-22T02:23:39.393Z,5.00
2022-09-22T02:26:41.095Z,5.09
2022-09-22T02:29:44.724Z,5.11
2022-09-22T02:32:48.958Z,5.14
2022-09-22T02:35:54.610Z,5.26
2022-09-22T02:39:00.424Z,4.96
2022-09-22T02:42:10.565Z,4.52
2022-09-22T02:45:13.948Z,4.00
2022-09-22T02:48:19.817Z,4.26
2022-09-22T02:51:22.038Z,4.48
2022-09-22T02:54:23.623Z,4.53
2022-09-22T02:57:25.374Z,3.95
2022-09-22T03:00:27.015Z,3.69
2022-09-22T03:03:30.099Z,3.50
2022-09-22T03:06:31.735Z,3.42
2022-09-22T03:09:33.371Z,3.36
2022-09-22T03:12:35.077Z,3.31
2022-09-22T03:15:36.734Z,3.44
2022-09-22T03:18:39.755Z,3.65
2022-09-22T03:21:41.378Z,3.88
2022-09-22T03:24:43.005Z,4.13
2022-09-22T03:27:44.651Z,4.30
2022-09-22T03:30:46.361Z,4.28
2022-09-22T03:33:52.739Z,4.41
2022-09-22T03:36:54.655Z,4.50
2022-09-22T03:39:56.284Z,4.50
2022-09-22T03:42:57.910Z,4.58
2022-09-22T03:46:00.253Z,4.61
2022-09-22T03:49:03.314Z,4.67
2022-09-22T03:52:04.982Z,4.78
2022-09-22T03:55:07.327Z,4.83
2022-09-22T03:58:08.940Z,4.83
2022-09-22T04:01:11.020Z,4.85
2022-09-22T04:04:14.097Z,4.95
2022-09-22T04:07:15.712Z,5.02
2022-09-22T04:10:17.362Z,4.94
2022-09-22T04:13:18.975Z,4.87
2022-09-22T04:16:20.945Z,4.94
2022-09-22T04:19:23.992Z,4.98
2022-09-22T04:22:25.629Z,4.96
2022-09-22T04:25:27.268Z,4.87
2022-09-22T04:28:29.127Z,4.89
2022-09-22T04:31:30.761Z,4.77
2022-09-22T04:34:33.872Z,4.76
2022-09-22T04:37:35.514Z,4.42
2022-09-22T04:40:37.182Z,4.24
2022-09-22T04:43:38.848Z,4.12
2022-09-22T04:46:40.431Z,4.31
2022-09-22T04:49:43.444Z,4.45
2022-09-22T04:52:45.452Z,4.59
2022-09-22T04:55:47.147Z,4.62
2022-09-22T04:58:48.766Z,4.71
2022-09-22T05:01:50.353Z,4.75
2022-09-22T05:04:53.453Z,4.82
2022-09-22T05:07:55.094Z,4.86
2022-09-22T05:10:56.724Z,4.91
2022-09-22T05:13:58.356Z,4.91
2022-09-22T05:17:00.057Z,4.89
2022-09-22T05:20:04.000Z,4.98
2022-09-22T05:23:07.033Z,4.92
2022-09-22T05:26:08.640Z,5.02
2022-09-22T05:29:10.323Z,5.05
2022-09-22T05:32:11.926Z,5.11
2022-09-22T05:35:16.200Z,5.06
2022-09-22T05:38:17.933Z,5.02
2022-09-22T05:41:19.617Z,4.97
2022-09-22T05:44:21.318Z,5.04
2022-09-22T05:47:23.034Z,5.12
2022-09-22T05:50:26.056Z,5.15
2022-09-22T05:53:27.721Z,5.15
2022-09-22T05:56:31.167Z,5.09
2022-09-22T05:59:32.994Z,5.12
2022-09-22T06:02:34.704Z,5.15
2022-09-22T06:05:39.457Z,5.22
2022-09-22T06:08:45.128Z,5.22
2022-09-22T06:11:50.119Z,5.34
2022-09-22T06:14:51.829Z,5.41
2022-09-22T06:17:53.438Z,5.52
2022-09-22T06:20:56.429Z,5.55
2022-09-22T06:23:58.147Z,5.61
2022-09-22T06:26:59.897Z,5.70
2022-09-22T06:30:01.545Z,5.74
2022-09-22T06:33:03.306Z,5.80
2022-09-22T06:36:07.681Z,5.82
2022-09-22T06:39:09.436Z,5.88
2022-09-22T06:42:11.061Z,5.92
2022-09-22T06:45:12.814Z,6.04
2022-09-22T06:48:14.481Z,6.05
2022-09-22T06:51:17.512Z,6.07
2022-09-22T06:54:21.401Z,6.13
2022-09-22T06:57:24.690Z,6.18
2022-09-22T07:00:27.219Z,6.23
2022-09-22T07:03:28.895Z,6.31
2022-09-22T07:06:31.918Z,6.45
2022-09-22T07:09:33.548Z,6.49
2022-09-22T07:12:35.147Z,6.56
2022-09-22T07:15:37.093Z,6.61
2022-09-22T07:18:39.318Z,6.69
2022-09-22T07:21:42.300Z,6.75
2022-09-22T07:24:44.038Z,6.83
2022-09-22T07:27:45.691Z,6.91
2022-09-22T07:30:47.317Z,7.09
2022-09-22T07:33:49.249Z,7.10
2022-09-22T07:36:52.287Z,7.12
2022-09-22T07:39:53.953Z,7.18
2022-09-22T07:42:55.662Z,7.26
2022-09-22T07:45:57.362Z,7.27
2022-09-22T07:48:58.977Z,7.36
2022-09-22T07:52:02.020Z,7.48
2022-09-22T07:55:03.813Z,7.56
2022-09-22T07:58:05.437Z,7.50
2022-09-22T08:01:07.887Z,7.69
2022-09-22T08:04:09.602Z,7.47
2022-09-22T08:07:12.632Z,7.52
2022-09-22T08:10:14.478Z,7.61
2022-09-22T08:13:16.121Z,7.73
2022-09-22T08:16:17.807Z,7.84
2022-09-22T08:19:19.683Z,7.88
2022-09-22T08:22:22.713Z,7.90
2022-09-22T08:25:24.341Z,7.89
2022-09-22T08:28:25.952Z,7.98
2022-09-22T08:31:27.671Z,8.05
2022-09-22T08:34:29.374Z,8.10
2022-09-22T08:37:32.478Z,8.29
2022-09-22T08:40:35.135Z,8.40
2022-09-22T08:43:43.483Z,8.51
2022-09-22T08:46:46.635Z,8.58
2022-09-22T08:49:51.252Z,8.67
2022-09-22T08:52:55.448Z,8.87
2022-09-22T08:56:01.421Z,9.00
2022-09-22T08:59:06.792Z,9.11
2022-09-22T09:02:25.289Z,9.33
2022-09-22T09:05:45.634Z,9.46
2022-09-22T09:09:07.574Z,9.64
2022-09-22T09:12:27.117Z,9.59
2022-09-22T09:15:33.821Z,9.41
2022-09-22T09:18:38.800Z,9.60
2022-09-22T09:21:41.832Z,9.74
2022-09-22T09:28:12.901Z,9.72
2022-09-22T09:31:19.055Z,9.77
2022-09-22T09:34:22.588Z,9.84
2022-09-22T09:37:24.419Z,10.06
2022-09-22T09:40:27.967Z,10.37
2022-09-22T09:43:30.615Z,10.35
2022-09-22T09:46:39.704Z,10.33
2022-09-22T09:49:41.606Z,10.56
2022-09-22T09:52:43.330Z,10.81
2022-09-22T09:55:46.340Z,10.77
2022-09-22T09:58:54.772Z,10.57
2022-09-22T10:01:56.653Z,10.62
2022-09-22T10:05:00.455Z,10.71
2022-09-22T10:08:03.132Z,10.71
2022-09-22T10:11:06.534Z,10.72
2022-09-22T10:14:17.231Z,10.57
2022-09-22T10:17:22.789Z,10.64
2022-09-22T10:20:25.789Z,10.55
2022-09-22T10:23:27.532Z,10.60
2022-09-22T10:26:31.226Z,10.56
2022-09-22T10:29:32.815Z,10.66
2022-09-22T10:32:34.438Z,10.72
2022-09-22T10:35:36.338Z,10.84
2022-09-22T10:41:42.971Z,11.20
2022-09-22T10:44:48.538Z,11.30
2022-09-22T10:47:56.562Z,11.40
2022-09-22T10:51:03.880Z,11.60
2022-09-22T10:54:20.143Z,11.59
2022-09-22T10:57:27.347Z,11.87
2022-09-22T11:00:35.271Z,11.86
2022-09-22T11:03:50.476Z,11.85
2022-09-22T11:07:01.597Z,12.03
2022-09-22T11:10:07.043Z,11.91
2022-09-22T11:13:16.536Z,11.81
2022-09-22T11:16:33.216Z,11.81
2022-09-22T11:19:42.603Z,11.69
2022-09-22T11:22:52.961Z,11.69
2022-09-22T11:26:02.001Z,11.82
2022-09-22T11:29:21.573Z,11.83
2022-09-22T11:32:33.970Z,12.04
2022-09-22T11:35:50.220Z,12.29
2022-09-22T11:39:00.174Z,12.28
2022-09-22T11:42:07.266Z,12.44
2022-09-22T11:45:17.543Z,12.50
2022-09-22T11:48:27.119Z,12.40
2022-09-22T11:51:39.253Z,12.45
2022-09-22T11:54:50.697Z,12.57
2022-09-22T11:57:55.804Z,12.87
2022-09-22T12:01:01.829Z,12.82
2022-09-22T12:04:06.965Z,12.69
2022-09-22T12:07:09.930Z,12.77
2022-09-22T12:10:15.798Z,12.67
2022-09-22T12:13:18.748Z,12.83
2022-09-22T12:16:24.966Z,13.05
2022-09-22T12:19:32.306Z,13.09
2022-09-22T12:22:37.509Z,13.08
2022-09-22T12:25:48.571Z,13.08
2022-09-22T12:28:51.085Z,13.13
2022-09-22T12:31:55.261Z,13.17
2022-09-22T12:34:58.200Z,13.13
2022-09-22T12:38:01.289Z,13.33
2022-09-22T12:41:03.386Z,13.28
2022-09-22T12:44:08.191Z,13.16
2022-09-22T12:47:20.022Z,13.08
2022-09-22T12:50:33.193Z,13.17
2022-09-22T12:53:34.798Z,13.54
2022-09-22T12:56:43.303Z,13.65
2022-09-22T12:59:55.301Z,13.71
2022-09-22T13:02:58.311Z,13.66
2022-09-22T13:06:00.683Z,13.69
2022-09-22T13:09:09.132Z,13.71
2022-09-22T13:12:26.255Z,13.76
2022-09-22T13:15:28.709Z,13.68
2022-09-22T13:18:32.931Z,13.77
2022-09-22T13:21:34.544Z,13.71
2022-09-22T13:24:36.161Z,14.04
2022-09-22T13:27:37.790Z,14.10
2022-09-22T13:30:40.674Z,13.99
2022-09-22T13:33:43.743Z,14.08
2022-09-22T13:36:45.624Z,14.09
2022-09-22T13:39:48.393Z,14.44
2022-09-22T13:42:50.035Z,14.30
2022-09-22T13:45:52.062Z,14.57
2022-09-22T13:48:57.063Z,14.63
2022-09-22T13:52:01.107Z,14.65
2022-09-22T13:55:06.217Z,14.85
2022-09-22T13:58:12.145Z,14.79
2022-09-22T14:01:15.267Z,14.35
2022-09-22T14:04:22.343Z,14.58
2022-09-22T14:07:26.646Z,14.84
2022-09-22T14:10:28.384Z,15.12
2022-09-22T14:13:36.580Z,15.10
2022-09-22T14:16:45.632Z,15.13
2022-09-22T14:19:53.303Z,15.29
2022-09-22T14:22:56.185Z,15.46
2022-09-22T14:25:59.003Z,15.29
2022-09-22T14:29:08.184Z,15.30
2022-09-22T14:32:14.866Z,15.40
2022-09-22T14:35:23.190Z,15.44
2022-09-22T14:38:24.994Z,15.14
2022-09-22T14:41:27.487Z,15.27
2022-09-22T14:44:37.574Z,15.47
2022-09-22T14:47:39.743Z,15.45
2022-09-22T14:50:45.344Z,15.44
2022-09-22T14:53:47.988Z,15.52
2022-09-22T14:56:49.588Z,15.63
2022-09-22T14:59:53.461Z,15.66
2022-09-22T15:02:56.116Z,15.70
2022-09-22T15:06:06.614Z,15.87
2022-09-22T15:09:22.530Z,16.02
2022-09-22T15:12:35.013Z,16.00
2022-09-22T15:15:44.627Z,16.06
2022-09-22T15:18:46.536Z,16.08
2022-09-22T15:21:49.710Z,16.18
2022-09-22T15:24:51.666Z,16.31
2022-09-22T15:27:53.348Z,16.27
2022-09-22T15:30:55.032Z,16.32
2022-09-22T15:33:57.728Z,16.25
2022-09-22T15:37:00.734Z,16.35
2022-09-22T15:40:06.106Z,16.69
2022-09-22T15:43:13.031Z,16.77
2022-09-22T15:46:24.122Z,16.88
2022-09-22T15:49:26.568Z,16.72
2022-09-22T15:52:30.079Z,17.01
2022-09-22T15:55:33.197Z,17.04
2022-09-22T15:58:39.443Z,17.10
2022-09-22T16:01:41.126Z,17.27
2022-09-22T16:04:42.748Z,17.31
2022-09-22T16:07:48.213Z,17.36
2022-09-22T16:10:49.925Z,17.60
2022-09-22T16:13:51.490Z,17.65
2022-09-22T16:16:53.089Z,17.65
2022-09-22T16:19:54.670Z,17.76
2022-09-22T16:22:57.665Z,17.90
2022-09-22T16:25:59.282Z,17.98
2022-09-22T16:29:01.272Z,17.92
2022-09-22T16:32:02.924Z,17.57
2022-09-22T16:35:04.946Z,16.97
2022-09-22T16:38:08.013Z,16.42
2022-09-22T16:41:18.005Z,16.13
2022-09-22T16:44:19.669Z,15.86
2022-09-22T16:47:21.333Z,15.58
2022-09-22T16:50:22.904Z,15.44
2022-09-22T16:53:25.908Z,15.20
2022-09-22T16:56:28.394Z,14.99
2022-09-22T16:59:29.956Z,14.77
2022-09-22T17:02:31.567Z,14.48
2022-09-22T17:05:33.173Z,14.41
2022-09-22T17:08:36.874Z,14.13
2022-09-22T17:11:39.429Z,14.07
2022-09-22T17:14:41.042Z,13.82
2022-09-22T17:17:42.815Z,13.58
2022-09-22T17:20:44.419Z,13.39
2022-09-22T17:23:48.289Z,13.27
2022-09-22T17:26:51.262Z,13.00
2022-09-22T17:29:52.920Z,13.02
2022-09-22T17:32:54.533Z,12.83
2022-09-22T17:35:56.703Z,12.61
2022-09-22T17:39:00.733Z,12.29
2022-09-22T17:42:02.376Z,12.10
2022-09-22T17:45:04.319Z,11.94
2022-09-22T17:48:06.009Z,11.61
2022-09-22T17:51:25.870Z,10.73
2022-09-22T17:54:29.691Z,10.42
2022-09-22T17:57:32.319Z,10.52
2022-09-22T18:00:34.013Z,10.68
2022-09-22T18:03:35.581Z,10.57
2022-09-22T18:06:37.203Z,10.60
2022-09-22T18:09:40.391Z,10.42
2022-09-22T18:12:42.533Z,10.59
2022-09-22T18:15:44.250Z,10.47
2022-09-22T18:18:45.894Z,10.13
2022-09-22T18:21:47.684Z,10.21
2022-09-22T18:24:51.617Z,9.96
2022-09-22T18:27:53.247Z,10.19
2022-09-22T18:30:54.957Z,10.09
2022-09-22T18:33:57.223Z,9.99
2022-09-22T18:36:58.972Z,10.18
2022-09-22T18:40:02.578Z,10.02
2022-09-22T18:43:04.422Z,10.17
2022-09-22T18:46:06.060Z,9.48
2022-09-22T18:49:08.005Z,9.77
2022-09-22T18:52:09.819Z,9.59
2022-09-22T18:55:12.963Z,9.23
2022-09-22T18:58:14.752Z,9.38
2022-09-22T19:01:16.664Z,9.66
2022-09-22T19:04:19.490Z,9.25
2022-09-22T19:07:21.279Z,9.20
2022-09-22T19:10:24.469Z,8.88
2022-09-22T19:13:26.315Z,8.87
2022-09-22T19:16:28.047Z,8.97
2022-09-22T19:19:29.889Z,8.83
2022-09-22T19:22:31.519Z,9.10
2022-09-22T19:25:34.515Z,9.37
2022-09-22T19:28:36.241Z,9.19
2022-09-22T19:31:38.637Z,8.97
2022-09-22T19:34:40.279Z,8.98
2022-09-22T19:37:41.980Z,9.19
2022-09-22T19:40:45.002Z,9.20
2022-09-22T19:43:46.939Z,9.29
2022-09-22T19:46:49.344Z,9.20
2022-09-22T19:49:51.287Z,8.68
2022-09-22T19:52:53.003Z,9.04
2022-09-22T19:55:56.064Z,8.94
2022-09-22T19:58:57.712Z,8.98
2022-09-22T20:01:59.403Z,8.95
2022-09-22T20:05:01.034Z,9.02
2022-09-22T20:08:02.871Z,9.02
2022-09-22T20:11:23.024Z,9.26
2022-09-22T20:14:27.814Z,9.07
2022-09-22T20:17:29.529Z,9.26
2022-09-22T20:20:31.119Z,8.86
2022-09-22T20:23:33.588Z,8.89
2022-09-22T20:26:36.574Z,8.97
2022-09-22T20:29:38.192Z,8.77
2022-09-22T20:32:39.761Z,8.71
2022-09-22T20:35:41.409Z,8.67
2022-09-22T20:38:43.020Z,8.60
2022-09-22T20:41:46.046Z,8.58
2022-09-22T20:44:47.785Z,8.67
2022-09-22T20:47:49.521Z,8.70
2022-09-22T20:50:54.683Z,8.86
2022-09-22T20:53:56.325Z,8.85
2022-09-22T20:56:59.479Z,8.86
2022-09-22T21:00:01.279Z,8.87
2022-09-22T21:03:03.052Z,8.88
2022-09-22T21:06:05.884Z,8.93
2022-09-22T21:09:08.789Z,8.63
2022-09-22T21:12:11.771Z,8.76
2022-09-22T21:15:13.738Z,8.60
2022-09-22T21:18:15.406Z,8.56
2022-09-22T21:21:17.733Z,8.78
2022-09-22T21:24:19.418Z,8.84
2022-09-22T21:27:22.784Z,8.86
2022-09-22T21:30:24.419Z,8.63
2022-09-22T21:33:26.593Z,8.31
2022-09-22T21:36:28.292Z,8.29
2022-09-22T21:39:29.973Z,8.36
2022-09-22T21:42:33.030Z,8.19
2022-09-22T21:45:34.679Z,8.05
2022-09-22T21:48:36.688Z,7.98
2022-09-22T21:51:39.153Z,7.81
2022-09-22T21:54:40.731Z,7.55
2022-09-22T21:57:43.707Z,7.45
2022-09-22T22:00:52.116Z,7.78
2022-09-22T22:03:55.454Z,8.07
2022-09-22T22:06:57.065Z,8.23
2022-09-22T22:09:58.628Z,8.40
2022-09-22T22:13:01.647Z,8.45
2022-09-22T22:16:03.808Z,8.45
2022-09-22T22:19:05.562Z,8.36
2022-09-22T22:22:07.244Z,8.42
2022-09-22T22:25:09.026Z,8.61
2022-09-22T22:28:12.389Z,8.58
2022-09-22T22:31:14.956Z,8.58
2022-09-22T22:34:17.788Z,8.62
2022-09-22T22:37:19.367Z,8.60
2022-09-22T22:40:21.120Z,8.58
2022-09-22T22:43:24.110Z,8.40
2022-09-22T22:46:25.778Z,8.46
2022-09-22T22:49:27.429Z,8.50
2022-09-22T22:52:29.150Z,8.41
2022-09-22T22:55:30.901Z,8.37
2022-09-22T22:58:34.716Z,8.34
2022-09-22T23:01:38.258Z,8.10
2022-09-22T23:04:39.873Z,8.20
2022-09-22T23:07:41.492Z,8.21
2022-09-22T23:10:43.150Z,8.27
2022-09-22T23:13:47.570Z,8.29
2022-09-22T23:16:49.345Z,8.39
2022-09-22T23:19:51.103Z,8.37
2022-09-22T23:22:52.714Z,8.38
2022-09-22T23:25:54.321Z,8.34
2022-09-22T23:28:57.518Z,8.33
2022-09-22T23:31:59.161Z,8.29
2022-09-22T23:35:00.758Z,8.31
2022-09-22T23:38:02.643Z,8.23
2022-09-22T23:41:04.670Z,8.29
2022-09-22T23:44:07.705Z,8.21
2022-09-22T23:47:12.188Z,8.27
2022-09-22T23:50:15.969Z,8.22
2022-09-22T23:53:18.365Z,8.19
2022-09-22T23:56:19.981Z,8.23
2022-09-22T23:59:22.987Z,8.18
